NCAR-RAP Real-Time Weather Data

Output produced by METARs form (23 June 2018  15:27 UTC)
found at http://weather.rap.ucar.edu/surface/
 
RJFK 231200Z 33004KT 8000 FEW001 SCT002 BKN020 21/21 Q1006 RMK 1ST001 3ST002 7CU020 A2971 P/RR
RJFK 231125Z 02006KT 5000 -SHRA BR FEW001 BKN002 BKN015 21/21 Q1004 RMK 2ST001 6ST002 7CU015 A2967
RJFK 231100Z 33005KT 5000 -SHRA BR FEW003 SCT010 BKN015 21/21 Q1005 RMK 2ST003 3CU010 7CU015 A2969
RJFK 231032Z 34006KT 3000 SHRA BR FEW001 SCT008 BKN015 21/21 Q1005 RMK 1ST001 3ST008 7CU015 A2968
RJFK 231011Z 01003KT 340V080 2000 R34/0800VP2000U +SHRA BR FEW001 SCT005 BKN008 21/21 Q1005 RMK 1ST001 3ST005 7ST008 A2968
RJFK 231003Z VRB01KT 2000 R34/0800VP2000D +SHRA BR FEW001 BKN005 BKN008 21/21 Q1005 RMK 1ST001 5ST005 7ST008 A2968 RI++
RJFK 231000Z VRB01KT 2000 R34/1200VP2000D SHRA BR FEW001 BKN005 BKN008 21/21 Q1005 RMK 1ST001 5ST005 7ST008 A2968
RJFK 230947Z VRB02KT 2000 R34/0800VP2000U SHRA BR SCT001 BKN003 BKN010 21/21 Q1005 RMK 3ST001 5ST003 7CU010 A2968
RJFK 230945Z VRB02KT 1500 R34/0700VP2000U SHRA BR SCT001 BKN003 BKN010 21/21 Q1005 RMK 3ST001 5ST003 7CU010 A2968
RJFK 230943Z VRB02KT 1500 R34/0500V1800U +SHRA BR SCT001 BKN002 BKN010 21/21 Q1005 RMK 3ST001 5ST002 7CU010 A2968
RJFK 230942Z VRB02KT 0500 R34/0400V1800U FG -SHRA SCT001 BKN002 BKN010 21/21 Q1005 RMK 3ST001 6ST002 7CU010 A2968
RJFK 230939Z 12002KT 0400 R34/0375V1400U FG -SHRA SCT001 BKN002 BKN010 21/21 Q1005 RMK 3ST001 6ST002 7CU010 A2968
RJFK 230938Z 12002KT 0300 R34/0375V1000U FG -SHRA SCT001 BKN002 BKN010 21/21 Q1005 RMK 3ST001 6ST002 7CU010 A2968
RJFK 230937Z 13002KT 0300 R34/0350V0800U FG -SHRA SCT001 BKN002 BKN010 21/21 Q1005 RMK 3ST001 6ST002 7CU010 A2968
RJFK 230923Z 13003KT 0100 R34/0225VP2000D FG -SHRA SCT001 BKN002 BKN010 21/21 Q1004 RMK 3ST001 6ST002 7CU010 A2967 4000W-N
RJFK 230922Z 13003KT 110V170 3000 R34/0225VP2000D -SHRA BCFG BR SCT001 BKN003 BKN010 21/21 Q1004 RMK 3ST001 6ST003 7CU010 A2967 FG E-S
RJFK 230918Z 14003KT 110V170 4000 R34/0275VP2000D -SHRA BCFG BR FEW001 BKN003 BKN010 21/21 Q1004 RMK 2ST001 5ST003 7CU010 A2967 FG SE-S
RJFK 230900Z 19003KT 150V230 4000 -SHRA BR FEW001 BKN003 BKN010 21/21 Q1004 RMK 2ST001 5ST003 7CU010 A2967
RJFK 230811Z 17008KT 4000 -SHRA BR FEW001 BKN003 BKN010 22/21 Q1005 RMK 1ST001 5ST003 7CU010 A2968
RJFK 230800Z 17006KT 2500 R34/2000U SHRA BR FEW001 BKN003 BKN010 22/21 Q1005 RMK 1ST001 5ST003 7CU010 A2968
RJFK 230742Z 17004KT 3000 R34/2000N SHRA BR FEW001 BKN004 BKN010 22/21 Q1005 RMK 1ST001 5ST004 7CU010 A2968
RJFK 230740Z 17004KT 150V220 4000 -SHRA BR FEW001 BKN004 BKN010 22/21 Q1005 RMK 1ST001 5ST004 7CU010 A2968
RJFK 230727Z 24004KT 170V280 3000 SHRA BR FEW001 BKN004 BKN010 22/21 Q1005 RMK 1ST001 5ST004 7CU010 A2969
RJFK 230721Z 21003KT 170V260 2500 +SHRA BR FEW001 BKN003 BKN010 22/21 Q1005 RMK 1ST001 5ST003 7CU010 A2970 RI++
RJFK 230700Z 21005KT 170V240 4000 -SHRA BR FEW001 BKN003 BKN010 22/21 Q1005 RMK 1ST001 5ST003 6CU010 A2970
RJFK 230649Z 22004KT 170V250 4000 R34/2000U -SHRA BR FEW001 BKN003 BKN010 22/21 Q1005 RMK 1ST001 5ST003 6CU010 A2969
RJFK 230639Z 19004KT 3000 R34/1000VP2000U SHRA BR FEW001 BKN005 BKN010 22/21 Q1005 RMK 1ST001 5ST005 6CU010 A2969
RJFK 230629Z 22005KT 170V270 2000 R34/0800VP2000D +SHRA BR FEW001 BKN005 BKN010 22/21 Q1005 RMK 1ST001 5ST005 6CU010 A2969 RI++
RJFK 230626Z 22004KT 190V270 1500 R34/P2000N +SHRA BR FEW001 BKN005 BKN010 22/21 Q1005 RMK 1ST001 5ST005 6CU010 A2970
RJFK 230615Z 20004KT 120V260 4000 -SHRA BCFG BR FEW001 BKN005 BKN015 22/21 Q1005 RMK 1ST001 5ST005 6CU015 A2969 FG NE-SE
RJFK 230600Z 19004KT 6000 SHRA FEW001 BKN008 BKN015 22/21 Q1005 RMK 1ST001 5ST008 6CU015 A2970
RJFK 230500Z 24005KT 200V290 7000 -SHRA BCFG FEW001 SCT006 BKN020 22/21 Q1005 RMK 2ST001 4ST006 6CU020 A2970 FG SE AND SW
RJFK 230400Z 22007KT 7000 -SHRA BCFG FEW001 BKN006 BKN030 23/21 Q1005 RMK 1ST001 5ST006 6CU030 A2970 FG NE-SE
RJFK 230300Z 23006KT 200V260 7000 -SHRA BCFG FEW001 BKN006 BKN010 22/22 Q1006 RMK 1ST001 5ST006 6CU010 A2972 FG NE-SE
RJFK 230200Z 23009KT 200V260 5000 -SHRA BCFG BR FEW001 BKN006 BKN010 22/22 Q1006 RMK 1ST001 5ST006 6CU010 A2973 FG NE-SE
RJFK 230147Z 20008KT 130V240 1500 R34/0400VP2000U -SHRA BCFG BR FEW001 BKN002 BKN003 22/22 Q1006 RMK 1ST001 5ST002 6ST003 A2973 FG NE-SE P/RR
RJFK 230141Z 18007KT 130V230 0800 R34/0375V1200D -SHRA FG FEW001 BKN002 BKN003 22/22 Q1006 RMK 1ST001 5ST002 6ST003 A2972 P/RR
RJFK 230132Z 18007KT 0200 R34/0350V1300U -SHRA FG VV001 22/22 Q1006 RMK A2971
RJFK 230128Z 17006KT 140V200 0200 R34/0350V0750N -SHRA FG VV001 22/22 Q1006 RMK A2971
RJFK 230123Z 15005KT 130V200 0500 R34/0350V1400D -SHRA FG FEW001 BKN002 BKN003 22/22 Q1005 RMK 1ST001 5ST002 6ST003 A2970
RJFK 230116Z 14004KT 110V210 0500 R34/0450V1600U -SHRA FG FEW001 SCT002 BKN003 22/22 Q1005 RMK 1ST001 3ST002 5ST003 A2969
RJFK 230113Z 13004KT 110V210 0500 R34/0450VP2000D -SHRA FG FEW001 SCT002 BKN003 22/22 Q1005 RMK 1ST001 3ST002 5ST003 A2969
RJFK 230100Z 15004KT 100V210 2000 R34/P2000N -SHRA BCFG BR FEW001 SCT002 BKN005 22/22 Q1005 RMK 1ST001 3ST002 5ST005 A2969 1000SE FG NE-S
RJFK 230036Z VRB02KT 3000 -SHRA BCFG BR FEW001 SCT002 BKN006 22/22 Q1005 RMK 1ST001 3ST002 5ST006 A2969 FG NW-SE
RJFK 230010Z 24004KT 210V270 4000 -SHRA BCFG BR FEW001 SCT006 BKN009 22/22 Q1006 RMK 1ST001 3ST006 5ST009 A2971 FG NW-N AND SE
RJFK 230000Z 25004KT 210V290 4000 SHRA BCFG BR FEW001 SCT006 BKN009 22/22 Q1005 RMK 1ST001 3ST006 5ST009 A2970 FG NE-SE
RJFK 222344Z 26004KT 210V310 2000 R34/0800VP2000U SHRA BCFG BR FEW001 SCT002 BKN006 22/22 Q1005 RMK 1ST001 3ST002 5ST006 A2968 FG ALL QUAD
RJFK 222342Z 27004KT 210V340 2000 R34/0600VP2000U SHRA BCFG BR FEW001 SCT002 BKN006 22/22 Q1005 RMK 1ST001 3ST002 5ST006 A2968 FG ALL QUAD
RJFK 222332Z 26006KT 200V310 1200 R34/0550VP2000D +SHRA BCFG BR FEW001 SCT002 BKN006 22/22 Q1005 RMK 1ST001 3ST002 5ST006 A2969 FG ALL QUAD RI++
RJFK 222329Z 25005KT 200V310 1200 R34/0750VP2000D +SHRA BCFG BR FEW001 SCT002 BKN006 22/22 Q1005 RMK 1ST001 3ST002 5ST006 A2970 FG ALL QUAD RI++
RJFK 222319Z VRB02KT 2000 +SHRA BCFG BR FEW001 SCT002 BKN006 22/22 Q1004 RMK 1ST001 3ST002 5ST006 A2966 FG N-SE
RJFK 222313Z 28003KT 210V350 3000 R34/1500VP2000U -SHRA BCFG BR FEW001 BKN006 BKN009 22/22 Q1004 RMK 1ST001 5ST006 6ST009 A2967 FG NW-SE
RJFK 222302Z VRB02KT 3000 SHRA BCFG BR FEW001 BKN006 BKN009 22/22 Q1005 RMK 1ST001 5ST006 6ST009 A2968 FG NW-N AND E-SE
RJFK 222300Z VRB02KT 4000 -SHRA BCFG BR FEW001 BKN006 BKN009 22/22 Q1005 RMK 1ST001 5ST006 6ST009 A2968 FG NW-N AND E-SE
RJFK 222200Z 22006KT 5000 -SHRA BCFG BR FEW001 SCT006 BKN009 22/22 Q1005 RMK 1ST001 3ST006 5ST009 A2969 FG NW-N AND E-SE
RJFK 222143Z 21007KT 180V240 4000 -SHRA BCFG BR FEW001 SCT006 BKN009 22/22 Q1005 RMK 1ST001 3ST006 5ST009 A2969 FG NW-NE AND SE-S
RJFK 222100Z 16005KT 2000 -SHRA BCFG BR FEW001 SCT003 BKN006 21/21 Q1005 RMK 1ST001 3ST003 6ST006 A2969 FG N-SE
RJFK 222035Z 12004KT 100V160 1200 R34/P2000N -SHRA BCFG BR FEW001 SCT003 BKN005 21/20 Q1005 RMK 1ST001 3ST003 5ST005 A2969 FG ALL QUAD
RJFK 221200Z 12007KT 9999 FEW010 BKN030 BKN100 22/18 Q1009 RMK 1ST010 5CU030 7AC100 A2979
RJFK 221100Z 14005KT 100V170 9999 FEW010 BKN035 BKN100 22/20 Q1009 RMK 1ST010 5CU035 7AC100 A2980
RJFK 221000Z 15008KT 9999 FEW010 BKN035 BKN100 22/20 Q1009 RMK 1ST010 5CU035 7AC100 A2980
RJFK 220900Z 15010KT 9999 FEW020 BKN045 BKN100 24/20 Q1008 RMK 1CU020 5SC045 7AC100 A2978 MOD TURB OBS AT 0840Z 10NM NE OF SPICA BTN 19000FT AND 18000FT IN DES B738
RJFK 220800Z 15009KT 9999 FEW020 BKN030 BKN/// 25/20 Q1008 RMK 1CU020 5CU030 A2977 VOLCANIC ASH CLOUD S
RJFK 220738Z 17008KT 9999 FEW020 BKN/// 26/21 Q1008 RMK 1CU020 A2977 VOLCANIC ASH CLOUD S
RJFK 220709Z 17006KT 9999 VCVA FEW020 BKN/// 26/20 Q1008 RMK 1CU020 A2977 ASH FALL VOLCANIC ASH CLOUD S
RJFK 220700Z 17005KT 130V200 9999 FEW020 BKN/// 26/20 Q1008
RJFK 220600Z 19006KT 160V220 9999 FEW020 SCT030 BKN/// 27/20 Q1008 RMK 1CU020 3CU030 A2979 VOLCANIC ASH CLOUD S
RJFK 220500Z 13007KT 080V170 9999 FEW020 SCT030 28/18 Q1008 RMK 1CU020 3CU030 A2979 VOLCANIC ASH CLOUD S
RJFK 220400Z 13008KT 100V170 9999 FEW020 SCT030 28/18 Q1008 RMK 1CU020 3CU030 A2979 VOLCANIC ASH CLOUD S
RJFK 220300Z 13010KT 9999 FEW020 SCT030 27/19 Q1009 RMK 1CU020 3CU030 A2980 VOLCANIC ASH CLOUD NE
RJFK 220200Z 09010KT 060V130 9999 VCVA FEW020 27/18 Q1009 RMK 2CU020 A2981 ASH FALL VOLCANIC ASH CLOUD N-NE
RJFK 220100Z 10008KT 9999 VCVA FEW010 BKN140 24/19 Q1009 RMK 1CU010 6AC140 A2981 ASH FALL VOLCANIC ASH CLOUD N-NE AND S
RJFK 220019Z 13005KT 090V180 9999 VCVA FEW010 BKN140 23/18 Q1009 RMK 1CU010 6AC140 A2982 ASH FALL VOLCANIC ASH CLOUD NE
RJFK 220000Z 14005KT 9999 FEW010 BKN140 22/18 Q1009 RMK 1CU010 6AC140 A2982
RJFK 212300Z 34003KT 9999 FEW010 BKN120 20/20 Q1009 RMK 1CU010 6AC120 A2982
RJFK 212200Z 36005KT 9999 BCFG FEW005 BKN130 18/18 Q1009 RMK 1ST005 6AC130 A2982 2000N-E FG N-E
RJFK 212125Z 35004KT 6000 R34/P2000N BCFG FEW002 SCT004 BKN130 18/18 Q1009 RMK 2ST002 3ST004 6AC130 A2982 1000N-SE FG N-SE
RJFK 212121Z 34004KT 4000 R34/0300VP2000U BCFG FEW002 SCT004 BKN130 18/18 Q1009 RMK 2ST002 3ST004 6AC130 A2982 1000N-SE FG N-SE
RJFK 212118Z 33004KT 4000 R34/0200VP2000U BCFG FEW002 SCT004 BKN130 18/18 Q1009 RMK 2ST002 3ST004 6AC130 A2982 1000N-SE FG N-SE
RJFK 212111Z 33004KT 0800 R34/0175V0225N FG FEW002 BKN004 BKN130 18/18 Q1009 RMK 2ST002 5ST004 6AC130 A2981
RJFK 212100Z 34003KT 0200 R34/0150V0225N FG VV001 18/18 Q1009 RMK A2981
RJFK 212030Z 36006KT 0100 R34/0250N FG VV001 18/18 Q1009 RMK A2979
RJFK 211200Z 15002KT 9999 FEW010 SCT015 BKN/// 20/19 Q1009 RMK 1CU010 4CU015 A2982
RJFK 211100Z 21002KT 9999 FEW020 BKN/// 21/19 Q1009
RJFK 211000Z 18004KT 9999 FEW020 BKN/// 22/18 Q1009 RMK 1CU020 A2979
RJFK 210900Z 18004KT 9999 FEW020 BKN/// 23/18 Q1008 RMK 1CU020 A2979
RJFK 210800Z 17005KT 9999 FEW020 BKN/// 24/18 Q1008
RJFK 210700Z 17005KT 9999 FEW030 BKN/// 24/19 Q1008 RMK 2CU030 A2977
RJFK 210600Z 18005KT 140V200 9999 SCT015 BKN030 23/20 Q1008 RMK 3CU015 7CU030 A2977 VOLCANIC ASH CLOUD S
RJFK 210500Z VRB02KT 9999 FEW007 SCT015 BKN030 23/20 Q1008 RMK 1ST007 3CU015 6CU030 A2977 VOLCANIC ASH CLOUD S
RJFK 210400Z VRB01KT 9999 FEW007 SCT015 BKN030 22/20 Q1008 RMK 2ST007 4CU015 6CU030 A2978